sensor_id;sensor_type;location;lat;lon;timestamp;temperature;humidity
39777;DHT22;25453;48.162;14.510;2024-03-23T00:53:54;13.20;70.20
39777;DHT22;25453;48.162;14.510;2024-03-23T00:56:20;13.20;70.20
39777;DHT22;25453;48.162;14.510;2024-03-23T00:58:47;13.20;70.10
39777;DHT22;25453;48.162;14.510;2024-03-23T01:01:13;13.30;70.20
39777;DHT22;25453;48.162;14.510;2024-03-23T01:03:39;13.30;70.10
39777;DHT22;25453;48.162;14.510;2024-03-23T01:06:05;13.30;70.00
39777;DHT22;25453;48.162;14.510;2024-03-23T01:08:31;13.30;70.10
39777;DHT22;25453;48.162;14.510;2024-03-23T01:10:58;13.30;70.10
39777;DHT22;25453;48.162;14.510;2024-03-23T01:13:26;13.30;70.00
39777;DHT22;25453;48.162;14.510;2024-03-23T01:15:53;13.20;70.00
39777;DHT22;25453;48.162;14.510;2024-03-23T01:18:21;13.20;69.90
39777;DHT22;25453;48.162;14.510;2024-03-23T01:20:47;13.20;70.00
39777;DHT22;25453;48.162;14.510;2024-03-23T01:23:14;13.20;70.10
39777;DHT22;25453;48.162;14.510;2024-03-23T01:25:40;13.20;69.90
39777;DHT22;25453;48.162;14.510;2024-03-23T01:28:07;13.20;70.00
39777;DHT22;25453;48.162;14.510;2024-03-23T01:30:36;13.10;70.00
39777;DHT22;25453;48.162;14.510;2024-03-23T01:33:03;13.10;70.10
39777;DHT22;25453;48.162;14.510;2024-03-23T01:35:30;13.10;70.20
39777;DHT22;25453;48.162;14.510;2024-03-23T01:37:57;13.10;70.30
39777;DHT22;25453;48.162;14.510;2024-03-23T01:40:23;13.10;70.20
39777;DHT22;25453;48.162;14.510;2024-03-23T01:42:56;13.10;70.30
39777;DHT22;25453;48.162;14.510;2024-03-23T01:45:22;13.20;70.40
39777;DHT22;25453;48.162;14.510;2024-03-23T01:47:50;13.20;70.50
39777;DHT22;25453;48.162;14.510;2024-03-23T01:50:17;13.20;70.40
39777;DHT22;25453;48.162;14.510;2024-03-23T01:52:43;13.30;70.20
39777;DHT22;25453;48.162;14.510;2024-03-23T01:55:10;13.20;70.00
39777;DHT22;25453;48.162;14.510;2024-03-23T01:57:36;13.20;70.00
39777;DHT22;25453;48.162;14.510;2024-03-23T02:00:03;13.10;69.90
39777;DHT22;25453;48.162;14.510;2024-03-23T02:02:29;13.10;70.00
39777;DHT22;25453;48.162;14.510;2024-03-23T02:04:55;13.10;70.10
39777;DHT22;25453;48.162;14.510;2024-03-23T02:07:21;13.10;70.10
39777;DHT22;25453;48.162;14.510;2024-03-23T02:09:50;13.10;70.20
39777;DHT22;25453;48.162;14.510;2024-03-23T02:12:17;13.00;70.30
39777;DHT22;25453;48.162;14.510;2024-03-23T02:14:44;13.10;70.40
39777;DHT22;25453;48.162;14.510;2024-03-23T02:17:10;13.10;70.30
39777;DHT22;25453;48.162;14.510;2024-03-23T02:19:36;13.10;70.40
39777;DHT22;25453;48.162;14.510;2024-03-23T02:22:02;13.10;70.50
39777;DHT22;25453;48.162;14.510;2024-03-23T02:24:29;13.10;70.50
39777;DHT22;25453;48.162;14.510;2024-03-23T02:26:55;13.20;70.40
39777;DHT22;25453;48.162;14.510;2024-03-23T02:29:21;13.20;70.30
39777;DHT22;25453;48.162;14.510;2024-03-23T02:31:48;13.20;70.30
39777;DHT22;25453;48.162;14.510;2024-03-23T02:34:14;13.20;70.30
39777;DHT22;25453;48.162;14.510;2024-03-23T02:36:40;13.20;70.20
39777;DHT22;25453;48.162;14.510;2024-03-23T02:39:06;13.20;70.20
39777;DHT22;25453;48.162;14.510;2024-03-23T02:41:32;13.10;70.20
39777;DHT22;25453;48.162;14.510;2024-03-23T02:43:58;13.10;70.30
39777;DHT22;25453;48.162;14.510;2024-03-23T02:46:24;13.10;70.20
39777;DHT22;25453;48.162;14.510;2024-03-23T02:48:50;13.00;70.30
39777;DHT22;25453;48.162;14.510;2024-03-23T02:51:17;13.00;70.40
39777;DHT22;25453;48.162;14.510;2024-03-23T02:53:43;13.00;70.40
39777;DHT22;25453;48.162;14.510;2024-03-23T02:56:09;13.00;70.60
39777;DHT22;25453;48.162;14.510;2024-03-23T02:58:39;13.00;70.50
39777;DHT22;25453;48.162;14.510;2024-03-23T03:01:05;13.00;70.40
39777;DHT22;25453;48.162;14.510;2024-03-23T03:03:31;12.90;70.40
39777;DHT22;25453;48.162;14.510;2024-03-23T03:05:58;12.90;70.50
39777;DHT22;25453;48.162;14.510;2024-03-23T03:08:24;12.90;70.70
39777;DHT22;25453;48.162;14.510;2024-03-23T03:10:51;13.00;70.70
39777;DHT22;25453;48.162;14.510;2024-03-23T03:13:17;13.00;70.50
39777;DHT22;25453;48.162;14.510;2024-03-23T03:15:44;12.90;70.40
39777;DHT22;25453;48.162;14.510;2024-03-23T03:18:10;12.90;70.30
39777;DHT22;25453;48.162;14.510;2024-03-23T03:20:40;12.90;70.30
39777;DHT22;25453;48.162;14.510;2024-03-23T03:23:07;12.80;70.50
39777;DHT22;25453;48.162;14.510;2024-03-23T03:25:33;12.80;70.40
39777;DHT22;25453;48.162;14.510;2024-03-23T03:28:00;12.70;70.30
39777;DHT22;25453;48.162;14.510;2024-03-23T03:30:26;12.70;70.50
39777;DHT22;25453;48.162;14.510;2024-03-23T03:32:55;12.70;70.50
39777;DHT22;25453;48.162;14.510;2024-03-23T03:35:21;12.60;70.50
39777;DHT22;25453;48.162;14.510;2024-03-23T03:37:48;12.60;70.70
39777;DHT22;25453;48.162;14.510;2024-03-23T03:40:14;12.60;70.70
39777;DHT22;25453;48.162;14.510;2024-03-23T03:42:42;12.60;70.60
39777;DHT22;25453;48.162;14.510;2024-03-23T03:45:09;12.60;70.60
39777;DHT22;25453;48.162;14.510;2024-03-23T03:47:35;12.60;70.60
39777;DHT22;25453;48.162;14.510;2024-03-23T03:50:01;12.50;70.60
39777;DHT22;25453;48.162;14.510;2024-03-23T03:52:27;12.50;70.60
39777;DHT22;25453;48.162;14.510;2024-03-23T03:55:00;12.50;70.60
39777;DHT22;25453;48.162;14.510;2024-03-23T03:57:28;12.50;70.60
39777;DHT22;25453;48.162;14.510;2024-03-23T03:59:54;12.50;70.50
39777;DHT22;25453;48.162;14.510;2024-03-23T04:02:21;12.50;70.60
39777;DHT22;25453;48.162;14.510;2024-03-23T04:04:47;12.50;70.60
39777;DHT22;25453;48.162;14.510;2024-03-23T04:07:13;12.40;70.40
39777;DHT22;25453;48.162;14.510;2024-03-23T04:09:39;12.40;70.50
39777;DHT22;25453;48.162;14.510;2024-03-23T04:12:06;12.40;70.70
39777;DHT22;25453;48.162;14.510;2024-03-23T04:14:32;12.40;70.50
39777;DHT22;25453;48.162;14.510;2024-03-23T04:16:59;12.30;70.40
39777;DHT22;25453;48.162;14.510;2024-03-23T04:19:25;12.20;70.30
39777;DHT22;25453;48.162;14.510;2024-03-23T04:21:51;12.20;70.30
39777;DHT22;25453;48.162;14.510;2024-03-23T04:24:17;12.10;70.30
39777;DHT22;25453;48.162;14.510;2024-03-23T04:26:45;12.10;70.30
39777;DHT22;25453;48.162;14.510;2024-03-23T04:29:12;12.00;70.20
39777;DHT22;25453;48.162;14.510;2024-03-23T04:31:38;12.00;70.20
39777;DHT22;25453;48.162;14.510;2024-03-23T04:34:04;12.00;70.50
39777;DHT22;25453;48.162;14.510;2024-03-23T04:36:31;12.00;70.50
39777;DHT22;25453;48.162;14.510;2024-03-23T04:38:59;11.90;70.20
39777;DHT22;25453;48.162;14.510;2024-03-23T04:41:26;11.90;70.30
39777;DHT22;25453;48.162;14.510;2024-03-23T04:43:52;11.90;70.20
39777;DHT22;25453;48.162;14.510;2024-03-23T04:46:18;11.90;70.10
39777;DHT22;25453;48.162;14.510;2024-03-23T04:48:44;11.80;70.10
39777;DHT22;25453;48.162;14.510;2024-03-23T04:51:11;11.80;69.90
39777;DHT22;25453;48.162;14.510;2024-03-23T04:53:40;11.80;70.10
39777;DHT22;25453;48.162;14.510;2024-03-23T04:56:06;11.70;70.10
39777;DHT22;25453;48.162;14.510;2024-03-23T04:58:32;11.70;70.10
39777;DHT22;25453;48.162;14.510;2024-03-23T05:00:58;11.70;70.20
39777;DHT22;25453;48.162;14.510;2024-03-23T05:03:24;11.70;70.30
39777;DHT22;25453;48.162;14.510;2024-03-23T05:05:50;11.70;70.10
39777;DHT22;25453;48.162;14.510;2024-03-23T05:08:17;11.70;70.10
39777;DHT22;25453;48.162;14.510;2024-03-23T05:10:43;11.70;70.40
39777;DHT22;25453;48.162;14.510;2024-03-23T05:13:09;11.60;70.60
39777;DHT22;25453;48.162;14.510;2024-03-23T05:15:36;11.60;70.70
39777;DHT22;25453;48.162;14.510;2024-03-23T05:18:02;11.70;70.80
39777;DHT22;25453;48.162;14.510;2024-03-23T05:20:29;11.70;70.60
39777;DHT22;25453;48.162;14.510;2024-03-23T05:22:55;11.70;70.60
39777;DHT22;25453;48.162;14.510;2024-03-23T05:25:21;11.70;70.70
39777;DHT22;25453;48.162;14.510;2024-03-23T05:27:48;11.80;70.70
39777;DHT22;25453;48.162;14.510;2024-03-23T05:30:15;11.80;70.70
39777;DHT22;25453;48.162;14.510;2024-03-23T05:32:41;11.80;70.40
39777;DHT22;25453;48.162;14.510;2024-03-23T05:35:10;11.80;69.90
39777;DHT22;25453;48.162;14.510;2024-03-23T05:37:38;11.70;69.90
39777;DHT22;25453;48.162;14.510;2024-03-23T05:40:04;11.70;70.00
39777;DHT22;25453;48.162;14.510;2024-03-23T05:42:31;11.60;70.10
39777;DHT22;25453;48.162;14.510;2024-03-23T05:44:57;11.50;70.20
39777;DHT22;25453;48.162;14.510;2024-03-23T05:47:23;11.50;70.00
39777;DHT22;25453;48.162;14.510;2024-03-23T05:49:52;11.50;70.00
39777;DHT22;25453;48.162;14.510;2024-03-23T05:52:18;11.40;70.20
39777;DHT22;25453;48.162;14.510;2024-03-23T05:54:46;11.40;70.30
39777;DHT22;25453;48.162;14.510;2024-03-23T05:57:12;11.40;70.40
39777;DHT22;25453;48.162;14.510;2024-03-23T05:59:39;11.50;70.50
39777;DHT22;25453;48.162;14.510;2024-03-23T06:02:05;11.50;70.60
39777;DHT22;25453;48.162;14.510;2024-03-23T06:04:31;11.50;70.70
39777;DHT22;25453;48.162;14.510;2024-03-23T06:06:58;11.60;70.60
39777;DHT22;25453;48.162;14.510;2024-03-23T06:09:24;11.60;70.70
39777;DHT22;25453;48.162;14.510;2024-03-23T06:11:51;11.60;70.70
39777;DHT22;25453;48.162;14.510;2024-03-23T06:14:17;11.60;70.60
39777;DHT22;25453;48.162;14.510;2024-03-23T06:16:43;11.60;70.80
39777;DHT22;25453;48.162;14.510;2024-03-23T06:19:09;11.70;70.90
39777;DHT22;25453;48.162;14.510;2024-03-23T06:21:36;11.70;71.20
39777;DHT22;25453;48.162;14.510;2024-03-23T06:24:02;11.80;71.40
39777;DHT22;25453;48.162;14.510;2024-03-23T06:26:29;11.80;71.60
39777;DHT22;25453;48.162;14.510;2024-03-23T06:28:55;11.90;71.50
39777;DHT22;25453;48.162;14.510;2024-03-23T06:31:22;11.90;71.50
39777;DHT22;25453;48.162;14.510;2024-03-23T06:33:48;12.00;71.70
39777;DHT22;25453;48.162;14.510;2024-03-23T06:36:14;12.10;71.80
39777;DHT22;25453;48.162;14.510;2024-03-23T06:38:40;12.10;71.80
39777;DHT22;25453;48.162;14.510;2024-03-23T06:41:06;12.10;71.90
39777;DHT22;25453;48.162;14.510;2024-03-23T06:43:32;12.10;72.00
39777;DHT22;25453;48.162;14.510;2024-03-23T06:45:58;12.20;72.10
39777;DHT22;25453;48.162;14.510;2024-03-23T06:48:25;12.20;72.10
39777;DHT22;25453;48.162;14.510;2024-03-23T06:50:58;12.20;72.10
39777;DHT22;25453;48.162;14.510;2024-03-23T06:53:24;12.30;72.30
39777;DHT22;25453;48.162;14.510;2024-03-23T06:55:52;12.40;72.30
39777;DHT22;25453;48.162;14.510;2024-03-23T06:58:23;12.40;72.30
39777;DHT22;25453;48.162;14.510;2024-03-23T07:00:49;12.50;72.30
39777;DHT22;25453;48.162;14.510;2024-03-23T07:03:16;12.50;72.40
39777;DHT22;25453;48.162;14.510;2024-03-23T07:05:43;12.60;72.40
39777;DHT22;25453;48.162;14.510;2024-03-23T07:08:10;12.60;72.40
39777;DHT22;25453;48.162;14.510;2024-03-23T07:10:42;12.70;72.40
39777;DHT22;25453;48.162;14.510;2024-03-23T07:13:08;12.80;72.40
39777;DHT22;25453;48.162;14.510;2024-03-23T07:15:34;12.90;72.40
39777;DHT22;25453;48.162;14.510;2024-03-23T07:18:01;12.90;72.40
39777;DHT22;25453;48.162;14.510;2024-03-23T07:20:27;12.90;72.50
39777;DHT22;25453;48.162;14.510;2024-03-23T07:22:55;13.00;72.50
39777;DHT22;25453;48.162;14.510;2024-03-23T07:25:21;13.10;72.50
39777;DHT22;25453;48.162;14.510;2024-03-23T07:27:49;13.20;72.50
39777;DHT22;25453;48.162;14.510;2024-03-23T07:30:15;13.20;72.50
39777;DHT22;25453;48.162;14.510;2024-03-23T07:32:44;13.30;72.10
39777;DHT22;25453;48.162;14.510;2024-03-23T07:35:10;13.40;72.00
39777;DHT22;25453;48.162;14.510;2024-03-23T07:37:36;13.40;72.00
39777;DHT22;25453;48.162;14.510;2024-03-23T07:40:03;13.50;71.90
39777;DHT22;25453;48.162;14.510;2024-03-23T07:42:29;13.50;72.00
39777;DHT22;25453;48.162;14.510;2024-03-23T07:44:55;13.60;72.00
39777;DHT22;25453;48.162;14.510;2024-03-23T07:47:22;13.70;72.10
39777;DHT22;25453;48.162;14.510;2024-03-23T07:49:49;13.80;72.10
39777;DHT22;25453;48.162;14.510;2024-03-23T07:52:15;13.80;72.20
39777;DHT22;25453;48.162;14.510;2024-03-23T07:54:41;13.90;72.30
39777;DHT22;25453;48.162;14.510;2024-03-23T07:57:07;14.00;72.10
39777;DHT22;25453;48.162;14.510;2024-03-23T07:59:33;14.10;72.20
39777;DHT22;25453;48.162;14.510;2024-03-23T08:02:00;14.20;72.10
39777;DHT22;25453;48.162;14.510;2024-03-23T08:04:28;14.30;72.20
39777;DHT22;25453;48.162;14.510;2024-03-23T08:06:54;14.40;72.30
39777;DHT22;25453;48.162;14.510;2024-03-23T08:09:20;14.50;72.30
39777;DHT22;25453;48.162;14.510;2024-03-23T08:11:47;14.60;72.20
39777;DHT22;25453;48.162;14.510;2024-03-23T08:14:15;14.70;72.00
39777;DHT22;25453;48.162;14.510;2024-03-23T08:16:41;14.80;71.90
39777;DHT22;25453;48.162;14.510;2024-03-23T08:19:07;14.90;71.90
39777;DHT22;25453;48.162;14.510;2024-03-23T08:21:34;15.00;71.90
39777;DHT22;25453;48.162;14.510;2024-03-23T08:24:00;15.10;71.70
39777;DHT22;25453;48.162;14.510;2024-03-23T08:26:27;15.20;71.70
39777;DHT22;25453;48.162;14.510;2024-03-23T08:28:53;15.40;71.50
39777;DHT22;25453;48.162;14.510;2024-03-23T08:31:19;15.50;71.30
39777;DHT22;25453;48.162;14.510;2024-03-23T08:33:45;15.60;71.10
39777;DHT22;25453;48.162;14.510;2024-03-23T08:36:12;15.80;70.90
39777;DHT22;25453;48.162;14.510;2024-03-23T08:38:40;15.90;70.70
39777;DHT22;25453;48.162;14.510;2024-03-23T08:41:10;16.00;70.50
39777;DHT22;25453;48.162;14.510;2024-03-23T08:43:38;16.20;70.20
39777;DHT22;25453;48.162;14.510;2024-03-23T08:46:08;16.30;70.00
39777;DHT22;25453;48.162;14.510;2024-03-23T08:48:36;16.50;69.60
39777;DHT22;25453;48.162;14.510;2024-03-23T08:51:07;16.60;69.20
39777;DHT22;25453;48.162;14.510;2024-03-23T08:53:35;16.70;69.00
39777;DHT22;25453;48.162;14.510;2024-03-23T08:56:02;16.80;68.80
39777;DHT22;25453;48.162;14.510;2024-03-23T08:58:29;16.90;68.40
39777;DHT22;25453;48.162;14.510;2024-03-23T09:00:57;17.00;68.20
39777;DHT22;25453;48.162;14.510;2024-03-23T09:03:24;17.10;68.00
39777;DHT22;25453;48.162;14.510;2024-03-23T09:05:51;17.30;68.00
39777;DHT22;25453;48.162;14.510;2024-03-23T09:08:18;17.40;67.90
39777;DHT22;25453;48.162;14.510;2024-03-23T09:10:45;17.60;67.30
39777;DHT22;25453;48.162;14.510;2024-03-23T09:13:11;17.70;66.70
39777;DHT22;25453;48.162;14.510;2024-03-23T09:15:49;17.90;65.90
39777;DHT22;25453;48.162;14.510;2024-03-23T09:18:16;18.00;65.20
39777;DHT22;25453;48.162;14.510;2024-03-23T09:20:42;18.20;64.70
39777;DHT22;25453;48.162;14.510;2024-03-23T09:23:08;18.30;64.10
39777;DHT22;25453;48.162;14.510;2024-03-23T09:25:38;18.50;63.50
39777;DHT22;25453;48.162;14.510;2024-03-23T09:28:05;18.70;62.80
39777;DHT22;25453;48.162;14.510;2024-03-23T09:30:33;18.90;62.40
39777;DHT22;25453;48.162;14.510;2024-03-23T09:32:59;19.10;62.20
39777;DHT22;25453;48.162;14.510;2024-03-23T09:35:26;19.30;61.80
39777;DHT22;25453;48.162;14.510;2024-03-23T09:37:52;19.50;61.10
39777;DHT22;25453;48.162;14.510;2024-03-23T09:40:18;19.70;60.60
39777;DHT22;25453;48.162;14.510;2024-03-23T09:42:50;19.80;60.00
39777;DHT22;25453;48.162;14.510;2024-03-23T09:45:27;20.00;59.50
39777;DHT22;25453;48.162;14.510;2024-03-23T09:47:55;20.10;59.00
39777;DHT22;25453;48.162;14.510;2024-03-23T09:50:22;20.20;58.40
39777;DHT22;25453;48.162;14.510;2024-03-23T09:52:48;20.20;57.80
39777;DHT22;25453;48.162;14.510;2024-03-23T09:55:15;20.20;57.40
39777;DHT22;25453;48.162;14.510;2024-03-23T09:57:42;20.20;56.90
39777;DHT22;25453;48.162;14.510;2024-03-23T10:00:08;20.20;56.60
39777;DHT22;25453;48.162;14.510;2024-03-23T10:02:35;20.20;56.50
39777;DHT22;25453;48.162;14.510;2024-03-23T10:05:02;20.20;56.20
39777;DHT22;25453;48.162;14.510;2024-03-23T10:07:28;20.20;56.00
39777;DHT22;25453;48.162;14.510;2024-03-23T10:09:57;20.20;55.70
39777;DHT22;25453;48.162;14.510;2024-03-23T10:12:24;20.20;55.10
39777;DHT22;25453;48.162;14.510;2024-03-23T10:14:50;20.10;54.70
39777;DHT22;25453;48.162;14.510;2024-03-23T10:17:21;20.00;54.10
39777;DHT22;25453;48.162;14.510;2024-03-23T10:19:53;19.80;53.80
39777;DHT22;25453;48.162;14.510;2024-03-23T10:22:23;19.60;53.70
39777;DHT22;25453;48.162;14.510;2024-03-23T10:24:50;19.50;54.00
39777;DHT22;25453;48.162;14.510;2024-03-23T10:27:21;19.30;54.00
39777;DHT22;25453;48.162;14.510;2024-03-23T10:29:48;19.10;54.30
39777;DHT22;25453;48.162;14.510;2024-03-23T10:32:16;18.80;54.40
39777;DHT22;25453;48.162;14.510;2024-03-23T10:34:43;18.60;54.10
39777;DHT22;25453;48.162;14.510;2024-03-23T10:37:09;18.40;54.10
39777;DHT22;25453;48.162;14.510;2024-03-23T10:39:40;18.20;54.10
39777;DHT22;25453;48.162;14.510;2024-03-23T10:42:09;18.00;53.90
39777;DHT22;25453;48.162;14.510;2024-03-23T10:44:36;17.70;54.00
39777;DHT22;25453;48.162;14.510;2024-03-23T10:47:03;17.50;54.30
39777;DHT22;25453;48.162;14.510;2024-03-23T10:49:32;17.30;54.70
39777;DHT22;25453;48.162;14.510;2024-03-23T10:52:02;17.10;55.30
39777;DHT22;25453;48.162;14.510;2024-03-23T10:54:30;17.00;55.60
39777;DHT22;25453;48.162;14.510;2024-03-23T10:57:06;16.80;55.90
39777;DHT22;25453;48.162;14.510;2024-03-23T10:59:36;16.70;55.60
39777;DHT22;25453;48.162;14.510;2024-03-23T11:02:03;16.60;55.30
39777;DHT22;25453;48.162;14.510;2024-03-23T11:07:01;16.40;54.60
39777;DHT22;25453;48.162;14.510;2024-03-23T11:09:42;16.20;54.80
39777;DHT22;25453;48.162;14.510;2024-03-23T11:14:58;16.10;54.30
39777;DHT22;25453;48.162;14.510;2024-03-23T11:17:27;16.00;53.80
39777;DHT22;25453;48.162;14.510;2024-03-23T11:20:01;15.90;53.80
39777;DHT22;25453;48.162;14.510;2024-03-23T11:22:45;15.80;53.60
39777;DHT22;25453;48.162;14.510;2024-03-23T11:25:33;15.60;53.70
39777;DHT22;25453;48.162;14.510;2024-03-23T11:28:12;15.50;53.60
39777;DHT22;25453;48.162;14.510;2024-03-23T11:30:38;15.40;53.80
39777;DHT22;25453;48.162;14.510;2024-03-23T11:33:05;15.30;53.90
39777;DHT22;25453;48.162;14.510;2024-03-23T11:35:38;15.20;53.50
39777;DHT22;25453;48.162;14.510;2024-03-23T11:38:16;15.10;53.60
39777;DHT22;25453;48.162;14.510;2024-03-23T11:40:49;15.00;53.50
39777;DHT22;25453;48.162;14.510;2024-03-23T11:43:19;14.90;53.60
39777;DHT22;25453;48.162;14.510;2024-03-23T11:45:47;14.80;53.90
39777;DHT22;25453;48.162;14.510;2024-03-23T11:48:15;14.80;54.10
39777;DHT22;25453;48.162;14.510;2024-03-23T11:50:42;14.80;54.10
39777;DHT22;25453;48.162;14.510;2024-03-23T11:53:17;14.70;54.00
39777;DHT22;25453;48.162;14.510;2024-03-23T11:55:49;14.60;54.00
39777;DHT22;25453;48.162;14.510;2024-03-23T11:58:17;14.50;54.20
39777;DHT22;25453;48.162;14.510;2024-03-23T12:00:49;14.40;54.20
39777;DHT22;25453;48.162;14.510;2024-03-23T12:03:17;14.30;54.20
39777;DHT22;25453;48.162;14.510;2024-03-23T12:05:48;14.30;54.40
39777;DHT22;25453;48.162;14.510;2024-03-23T12:08:23;14.20;54.70
39777;DHT22;25453;48.162;14.510;2024-03-23T12:11:08;14.20;55.00
39777;DHT22;25453;48.162;14.510;2024-03-23T12:13:43;14.10;55.10
39777;DHT22;25453;48.162;14.510;2024-03-23T12:16:18;14.10;55.00
39777;DHT22;25453;48.162;14.510;2024-03-23T12:18:52;14.10;55.10
39777;DHT22;25453;48.162;14.510;2024-03-23T12:21:25;14.00;55.30
39777;DHT22;25453;48.162;14.510;2024-03-23T12:23:51;14.00;55.40
39777;DHT22;25453;48.162;14.510;2024-03-23T12:26:24;13.90;55.60
39777;DHT22;25453;48.162;14.510;2024-03-23T12:28:50;13.90;55.80
39777;DHT22;25453;48.162;14.510;2024-03-23T12:31:16;13.80;56.00
39777;DHT22;25453;48.162;14.510;2024-03-23T12:33:49;13.80;56.30
39777;DHT22;25453;48.162;14.510;2024-03-23T12:36:15;13.70;56.50
39777;DHT22;25453;48.162;14.510;2024-03-23T12:38:50;13.70;56.70
39777;DHT22;25453;48.162;14.510;2024-03-23T12:41:16;13.70;56.90
39777;DHT22;25453;48.162;14.510;2024-03-23T12:43:49;13.70;57.00
39777;DHT22;25453;48.162;14.510;2024-03-23T12:46:16;13.60;57.10
39777;DHT22;25453;48.162;14.510;2024-03-23T12:48:48;13.60;57.10
39777;DHT22;25453;48.162;14.510;2024-03-23T12:51:14;13.60;57.20
39777;DHT22;25453;48.162;14.510;2024-03-23T12:53:47;13.60;57.60
39777;DHT22;25453;48.162;14.510;2024-03-23T12:56:13;13.60;57.80
39777;DHT22;25453;48.162;14.510;2024-03-23T12:58:46;13.50;58.10
39777;DHT22;25453;48.162;14.510;2024-03-23T13:01:20;13.60;58.30
39777;DHT22;25453;48.162;14.510;2024-03-23T13:03:59;13.50;58.60
39777;DHT22;25453;48.162;14.510;2024-03-23T13:06:26;13.50;59.00
39777;DHT22;25453;48.162;14.510;2024-03-23T13:08:53;13.50;59.20
39777;DHT22;25453;48.162;14.510;2024-03-23T13:11:20;13.40;59.70
39777;DHT22;25453;48.162;14.510;2024-03-23T13:13:46;13.40;60.30
39777;DHT22;25453;48.162;14.510;2024-03-23T13:16:12;13.30;60.80
39777;DHT22;25453;48.162;14.510;2024-03-23T13:18:38;13.20;61.50
39777;DHT22;25453;48.162;14.510;2024-03-23T13:21:04;13.20;62.00
39777;DHT22;25453;48.162;14.510;2024-03-23T13:23:30;13.20;62.70
39777;DHT22;25453;48.162;14.510;2024-03-23T13:25:58;13.20;63.70
39777;DHT22;25453;48.162;14.510;2024-03-23T13:28:24;13.00;64.30
39777;DHT22;25453;48.162;14.510;2024-03-23T13:30:55;12.90;64.90
39777;DHT22;25453;48.162;14.510;2024-03-23T13:33:22;12.80;65.40
39777;DHT22;25453;48.162;14.510;2024-03-23T13:35:52;12.70;66.30
39777;DHT22;25453;48.162;14.510;2024-03-23T13:38:19;12.60;66.90
39777;DHT22;25453;48.162;14.510;2024-03-23T13:40:56;12.50;66.80
39777;DHT22;25453;48.162;14.510;2024-03-23T13:43:23;12.50;66.70
39777;DHT22;25453;48.162;14.510;2024-03-23T13:45:54;12.30;65.60
39777;DHT22;25453;48.162;14.510;2024-03-23T13:48:22;12.20;65.40
39777;DHT22;25453;48.162;14.510;2024-03-23T13:50:59;12.10;65.30
39777;DHT22;25453;48.162;14.510;2024-03-23T13:53:26;11.90;65.00
39777;DHT22;25453;48.162;14.510;2024-03-23T13:55:52;11.80;65.30
39777;DHT22;25453;48.162;14.510;2024-03-23T13:58:19;11.80;65.20
39777;DHT22;25453;48.162;14.510;2024-03-23T14:00:45;11.80;65.00
39777;DHT22;25453;48.162;14.510;2024-03-23T14:03:13;11.70;65.00
39777;DHT22;25453;48.162;14.510;2024-03-23T14:05:40;11.70;65.20
39777;DHT22;25453;48.162;14.510;2024-03-23T14:08:07;11.70;64.70
39777;DHT22;25453;48.162;14.510;2024-03-23T14:10:34;11.70;64.60
39777;DHT22;25453;48.162;14.510;2024-03-23T14:13:02;11.80;64.80
39777;DHT22;25453;48.162;14.510;2024-03-23T14:15:32;11.80;64.60
39777;DHT22;25453;48.162;14.510;2024-03-23T14:17:58;11.80;64.50
39777;DHT22;25453;48.162;14.510;2024-03-23T14:20:25;11.80;64.20
39777;DHT22;25453;48.162;14.510;2024-03-23T14:22:52;11.80;64.20
39777;DHT22;25453;48.162;14.510;2024-03-23T14:25:18;11.80;64.30
39777;DHT22;25453;48.162;14.510;2024-03-23T14:27:45;11.80;64.60
39777;DHT22;25453;48.162;14.510;2024-03-23T14:30:13;11.80;64.40
39777;DHT22;25453;48.162;14.510;2024-03-23T14:32:39;11.90;64.70
39777;DHT22;25453;48.162;14.510;2024-03-23T14:35:06;11.90;64.50
39777;DHT22;25453;48.162;14.510;2024-03-23T14:37:34;11.90;64.40
39777;DHT22;25453;48.162;14.510;2024-03-23T14:40:00;12.00;64.60
39777;DHT22;25453;48.162;14.510;2024-03-23T14:42:28;12.00;64.80
39777;DHT22;25453;48.162;14.510;2024-03-23T14:44:54;12.00;64.60
39777;DHT22;25453;48.162;14.510;2024-03-23T14:47:20;12.00;64.50
39777;DHT22;25453;48.162;14.510;2024-03-23T14:49:46;12.00;64.60
39777;DHT22;25453;48.162;14.510;2024-03-23T14:52:13;12.00;64.60
39777;DHT22;25453;48.162;14.510;2024-03-23T14:54:40;12.00;64.50
39777;DHT22;25453;48.162;14.510;2024-03-23T14:57:06;12.00;64.10
39777;DHT22;25453;48.162;14.510;2024-03-23T14:59:35;11.90;64.20
39777;DHT22;25453;48.162;14.510;2024-03-23T15:02:04;11.90;64.60
39777;DHT22;25453;48.162;14.510;2024-03-23T15:04:31;11.90;64.50
39777;DHT22;25453;48.162;14.510;2024-03-23T15:06:57;11.90;64.60
39777;DHT22;25453;48.162;14.510;2024-03-23T15:09:24;11.90;64.80
39777;DHT22;25453;48.162;14.510;2024-03-23T15:11:50;11.90;64.70
39777;DHT22;25453;48.162;14.510;2024-03-23T15:14:16;11.90;64.70
39777;DHT22;25453;48.162;14.510;2024-03-23T15:16:42;11.90;64.30
39777;DHT22;25453;48.162;14.510;2024-03-23T15:19:09;11.90;64.50
39777;DHT22;25453;48.162;14.510;2024-03-23T15:21:35;11.90;64.70
39777;DHT22;25453;48.162;14.510;2024-03-23T15:24:01;11.90;64.60
39777;DHT22;25453;48.162;14.510;2024-03-23T15:26:27;11.90;64.70
39777;DHT22;25453;48.162;14.510;2024-03-23T15:28:53;11.90;64.80
39777;DHT22;25453;48.162;14.510;2024-03-23T15:31:23;11.90;65.10
39777;DHT22;25453;48.162;14.510;2024-03-23T15:33:49;11.90;65.30
39777;DHT22;25453;48.162;14.510;2024-03-23T15:36:15;11.90;65.50
39777;DHT22;25453;48.162;14.510;2024-03-23T15:38:41;12.00;65.80
39777;DHT22;25453;48.162;14.510;2024-03-23T15:41:09;12.00;65.90
39777;DHT22;25453;48.162;14.510;2024-03-23T15:43:36;12.00;65.90
39777;DHT22;25453;48.162;14.510;2024-03-23T15:46:04;11.90;66.00
39777;DHT22;25453;48.162;14.510;2024-03-23T15:48:31;11.80;66.00
39777;DHT22;25453;48.162;14.510;2024-03-23T15:50:59;11.80;65.80
39777;DHT22;25453;48.162;14.510;2024-03-23T15:53:26;11.70;65.90
39777;DHT22;25453;48.162;14.510;2024-03-23T15:56:00;11.70;66.20
39777;DHT22;25453;48.162;14.510;2024-03-23T15:58:27;11.70;66.40
39777;DHT22;25453;48.162;14.510;2024-03-23T16:01:07;11.70;66.40
39777;DHT22;25453;48.162;14.510;2024-03-23T16:03:36;11.70;66.20
39777;DHT22;25453;48.162;14.510;2024-03-23T16:06:07;11.70;66.40
39777;DHT22;25453;48.162;14.510;2024-03-23T16:08:34;11.70;66.00
39777;DHT22;25453;48.162;14.510;2024-03-23T16:11:02;11.70;65.80
39777;DHT22;25453;48.162;14.510;2024-03-23T16:13:28;11.70;65.90
39777;DHT22;25453;48.162;14.510;2024-03-23T16:15:59;11.70;65.80